Erwinna, Pennsylvania
Current Conditions -  °F | °C
As of 5:54 PM on Sunday 21 Dec 2014 (Local Time) from KDYL Reporting Station
Overcast Overcast  
Wind Chill: -1°   Ceiling: 2800
Heat Index: -1°   Visibility: 10mi
Dew Point: -5°   Wind: 0mph
Humidity: 75%   Direction: NA
Pressure: 30.31"   Gusts: NA
Location:  40.5°N, 75.07°W
Report Text: KDYL 212254Z AUTO 00000KT 10SM OVC028 M01/M05 A3031 RMK AO2 SLP274 T10111050
Loading
Personal Weather Stations






























Interactive Weather Map New forecast layout! Learn more

10-Day Weather Forecast

Advertisements
Track Severe Weather on mobile